Time;durP1;ratioP1;P1;durP2;ratioP2;P2;SDS_P1;SDS_P2;PMS_P1;PMS_P2;Temp;Humidity;BMP_temperature;BMP_pressure;BME280_temperature;BME280_humidity;BME280_pressure;Samples;Min_cycle;Max_cycle;Signal;HPM_P1;HPM_P2
2021/01/25 00:01:54;;;;;;;1.80;0.85;;;15.50;99.90;;;;;;4958839;28;20530;-69
2021/01/25 00:04:21;;;;;;;1.73;0.50;;;15.50;99.90;;;;;;4960134;28;20443;-69
2021/01/25 00:06:48;;;;;;;1.33;0.60;;;15.70;99.90;;;;;;4958211;28;20037;-69
2021/01/25 00:09:15;;;;;;;2.17;0.50;;;15.70;99.90;;;;;;4958323;28;20157;-69
2021/01/25 00:11:41;;;;;;;8.13;0.90;;;15.60;99.90;;;;;;4958257;28;20039;-73
2021/01/25 00:14:08;;;;;;;4.78;0.60;;;15.40;99.90;;;;;;4958288;28;20050;-69
2021/01/25 00:16:34;;;;;;;2.38;0.45;;;15.00;99.90;;;;;;4958832;28;20302;-69
2021/01/25 00:19:01;;;;;;;3.60;0.52;;;14.90;99.90;;;;;;4957494;28;20038;-66
2021/01/25 00:21:27;;;;;;;3.15;0.55;;;14.90;99.90;;;;;;4959254;28;20076;-71
2021/01/25 00:23:54;;;;;;;2.35;0.70;;;14.60;99.90;;;;;;4959915;28;20030;-69
2021/01/25 00:26:21;;;;;;;3.92;0.52;;;14.40;99.90;;;;;;4959238;28;20034;-69
2021/01/25 00:28:47;;;;;;;4.60;0.82;;;14.20;99.90;;;;;;4958013;28;20044;-70
2021/01/25 00:31:14;;;;;;;7.25;0.82;;;14.10;99.90;;;;;;4958516;28;20164;-70
2021/01/25 00:33:41;;;;;;;4.22;0.80;;;13.90;99.90;;;;;;4958432;28;20058;-71
2021/01/25 00:36:07;;;;;;;4.60;0.77;;;13.60;99.90;;;;;;4959544;28;20034;-69
2021/01/25 00:38:34;;;;;;;4.03;0.60;;;13.90;99.90;;;;;;4958696;28;20402;-71
2021/01/25 00:41:01;;;;;;;2.50;1.02;;;13.70;99.90;;;;;;4960290;28;20038;-70
2021/01/25 00:43:27;;;;;;;1.80;1.00;;;13.60;99.90;;;;;;4959643;28;20101;-71
2021/01/25 00:45:54;;;;;;;4.70;0.77;;;13.60;99.90;;;;;;4959388;28;20078;-70
2021/01/25 00:48:20;;;;;;;5.97;1.50;;;13.50;99.90;;;;;;4958035;28;20196;-69
2021/01/25 00:50:47;;;;;;;4.50;0.77;;;13.50;99.90;;;;;;4959714;28;20054;-66
2021/01/25 00:53:14;;;;;;;2.05;0.70;;;13.40;99.90;;;;;;4958212;28;20069;-68
2021/01/25 00:55:40;;;;;;;5.20;0.60;;;13.40;99.90;;;;;;4959309;28;20026;-71
2021/01/25 00:58:07;;;;;;;3.05;0.70;;;13.40;99.90;;;;;;4958237;28;20110;-68
2021/01/25 01:00:34;;;;;;;3.47;0.93;;;13.40;99.90;;;;;;4957313;28;20035;-69
2021/01/25 01:03:01;;;;;;;3.00;0.82;;;13.30;99.90;;;;;;4959343;28;20059;-68
2021/01/25 01:05:28;;;;;;;3.70;1.00;;;13.30;99.90;;;;;;4957853;28;20031;-69
2021/01/25 01:07:54;;;;;;;4.82;1.48;;;13.20;99.90;;;;;;4960372;28;20023;-69
2021/01/25 01:10:21;;;;;;;6.43;0.88;;;13.10;99.90;;;;;;4957988;28;20046;-67
2021/01/25 01:12:48;;;;;;;3.70;1.00;;;13.10;99.90;;;;;;4961863;28;20088;-67
2021/01/25 01:15:15;;;;;;;2.45;0.90;;;13.20;99.90;;;;;;4963707;28;20158;-66
2021/01/25 01:17:42;;;;;;;2.42;1.23;;;13.20;99.90;;;;;;4961744;28;20155;-66
2021/01/25 01:20:10;;;;;;;4.10;0.93;;;13.20;99.90;;;;;;4964554;28;20031;-67
2021/01/25 01:22:37;;;;;;;2.38;0.85;;;13.20;99.90;;;;;;4962593;28;20392;-67
2021/01/25 01:25:06;;;;;;;4.90;1.35;;;13.20;99.90;;;;;;4963066;28;20041;-66
2021/01/25 01:27:33;;;;;;;6.18;0.90;;;13.20;99.90;;;;;;4962316;28;20718;-66
2021/01/25 01:29:59;;;;;;;4.25;1.08;;;13.10;99.90;;;;;;4963211;28;20118;-67
2021/01/25 01:32:26;;;;;;;6.20;1.08;;;13.00;99.90;;;;;;4962667;28;20082;-67
2021/01/25 01:34:53;;;;;;;13.52;1.45;;;13.00;99.90;;;;;;4962723;28;20133;-66
2021/01/25 01:37:19;;;;;;;5.07;1.00;;;13.10;99.90;;;;;;4960732;28;20019;-66
2021/01/25 01:39:46;;;;;;;22.50;1.45;;;13.10;99.90;;;;;;4961906;28;20376;-66
2021/01/25 01:42:19;;;;;;;14.57;2.63;;;13.00;99.90;;;;;;4960989;28;20035;-66
2021/01/25 01:44:46;;;;;;;12.48;1.88;;;13.00;99.90;;;;;;4962715;28;20053;-65
2021/01/25 01:47:17;;;;;;;12.30;2.13;;;12.90;99.90;;;;;;4963770;28;20035;-66
2021/01/25 01:49:44;;;;;;;11.70;1.42;;;12.80;99.90;;;;;;4962097;28;20050;-66
2021/01/25 01:52:11;;;;;;;4.78;1.30;;;12.70;99.90;;;;;;4962605;28;20097;-65
2021/01/25 01:54:40;;;;;;;15.43;3.58;;;12.70;99.90;;;;;;4962301;28;20150;-66
2021/01/25 01:57:08;;;;;;;13.10;2.05;;;12.60;99.90;;;;;;4961232;28;20119;-66
2021/01/25 01:59:35;;;;;;;12.00;1.77;;;12.50;99.90;;;;;;4962870;28;20035;-66
2021/01/25 02:02:01;;;;;;;12.35;1.80;;;12.50;99.90;;;;;;4961446;28;20044;-65
2021/01/25 02:04:29;;;;;;;10.40;1.67;;;12.50;99.90;;;;;;4962112;28;20055;-67
2021/01/25 02:06:59;;;;;;;8.27;2.08;;;12.50;99.90;;;;;;4962359;28;20046;-66
2021/01/25 02:09:28;;;;;;;9.70;1.70;;;12.40;99.90;;;;;;4961664;28;20038;-67
2021/01/25 02:11:55;;;;;;;5.43;1.35;;;12.40;99.90;;;;;;4962955;28;20023;-67
2021/01/25 02:14:22;;;;;;;10.95;1.65;;;12.40;99.90;;;;;;4962406;28;20043;-66
2021/01/25 02:16:49;;;;;;;8.30;1.75;;;12.40;99.90;;;;;;4962848;28;20031;-66
2021/01/25 02:19:27;;;;;;;13.10;2.45;;;12.40;99.90;;;;;;4962361;28;20056;-67
2021/01/25 02:22:21;;;;;;;12.07;4.32;;;12.50;99.90;;;;;;4962273;28;20059;-66
2021/01/25 02:25:28;;;;;;;14.05;2.08;;;12.50;99.90;;;;;;4962438;28;20043;-66
2021/01/25 02:27:55;;;;;;;11.65;2.10;;;12.40;99.90;;;;;;4953874;28;20046;-65
2021/01/25 02:30:22;;;;;;;12.02;1.95;;;12.40;99.90;;;;;;4962740;28;20035;-65
2021/01/25 02:32:51;;;;;;;11.27;2.70;;;12.40;99.90;;;;;;4961711;28;20081;-65
2021/01/25 02:35:20;;;;;;;9.32;2.25;;;12.40;99.90;;;;;;4961869;28;20023;-65
2021/01/25 02:37:52;;;;;;;16.92;2.47;;;12.40;99.90;;;;;;4963212;28;20062;-65
2021/01/25 02:40:21;;;;;;;19.27;3.30;;;12.50;99.90;;;;;;4960188;28;20125;-64
2021/01/25 02:42:51;;;;;;;19.63;3.15;;;12.50;99.90;;;;;;4961214;28;20042;-63
2021/01/25 02:45:18;;;;;;;15.35;2.58;;;12.40;99.90;;;;;;4961554;28;20046;-64
2021/01/25 02:47:46;;;;;;;11.88;2.50;;;12.40;99.90;;;;;;4961702;28;20073;-65
2021/01/25 02:50:13;;;;;;;15.20;2.83;;;12.50;99.90;;;;;;4960941;28;20129;-64
2021/01/25 02:52:39;;;;;;;16.25;2.53;;;12.50;99.90;;;;;;4962192;28;20030;-66
2021/01/25 02:55:06;;;;;;;12.57;2.08;;;12.50;99.90;;;;;;4963491;28;20101;-65
2021/01/25 02:57:35;;;;;;;14.15;3.70;;;12.60;99.90;;;;;;4961733;28;20030;-64
2021/01/25 03:00:03;;;;;;;10.50;3.10;;;12.50;99.90;;;;;;4962459;28;20114;-64
2021/01/25 03:02:30;;;;;;;11.10;1.65;;;12.50;99.90;;;;;;4960535;28;20080;-69
2021/01/25 03:05:03;;;;;;;17.27;4.00;;;12.50;99.90;;;;;;4960109;28;20117;-65
2021/01/25 03:07:30;;;;;;;27.38;4.38;;;12.30;99.90;;;;;;4960493;28;20035;-69
2021/01/25 03:10:01;;;;;;;16.33;3.63;;;12.00;99.90;;;;;;4961219;28;20030;-71
2021/01/25 03:12:28;;;;;;;21.33;3.63;;;11.70;99.90;;;;;;4961388;28;20023;-66
2021/01/25 03:14:55;;;;;;;15.35;2.78;;;11.50;99.90;;;;;;5455355;23;20059;-67
2021/01/25 03:17:21;;;;;;;9.35;2.13;;;11.10;99.90;;;;;;4959328;28;20614;-68
2021/01/25 03:19:48;;;;;;;9.05;1.63;;;10.80;99.90;;;;;;4962840;28;20051;-68
2021/01/25 03:22:15;;;;;;;9.40;1.52;;;10.70;99.90;;;;;;4961140;28;20042;-68
2021/01/25 03:24:42;;;;;;;8.88;1.48;;;10.60;99.90;;;;;;4960509;28;20019;-68
2021/01/25 03:27:09;;;;;;;9.05;1.45;;;10.60;99.90;;;;;;4959756;28;20035;-68
2021/01/25 03:29:35;;;;;;;4.45;1.77;;;10.60;99.90;;;;;;4962028;28;20496;-69
2021/01/25 03:32:02;;;;;;;4.82;1.40;;;10.60;99.90;;;;;;4956761;28;20026;-70
2021/01/25 03:34:29;;;;;;;12.10;2.33;;;10.70;99.90;;;;;;4956903;28;20077;-69
2021/01/25 03:36:56;;;;;;;7.40;1.40;;;10.60;99.90;;;;;;4959804;28;20042;-68
2021/01/25 03:39:22;;;;;;;8.60;1.33;;;10.50;99.90;;;;;;4959093;28;20069;-67
2021/01/25 03:41:49;;;;;;;3.47;1.55;;;10.50;99.90;;;;;;4960256;28;20057;-66
2021/01/25 03:44:16;;;;;;;2.60;1.23;;;10.60;99.90;;;;;;4961722;28;20109;-66
2021/01/25 03:46:46;;;;;;;5.32;1.13;;;10.60;99.90;;;;;;4962204;28;20035;-67
2021/01/25 03:49:14;;;;;;;5.63;1.25;;;10.60;99.90;;;;;;4959659;28;20035;-66
2021/01/25 03:51:41;;;;;;;6.93;1.20;;;10.60;99.90;;;;;;4960409;28;20035;-66
2021/01/25 03:54:12;;;;;;;5.78;0.88;;;10.60;99.90;;;;;;4959324;28;20038;-66
2021/01/25 03:56:39;;;;;;;6.85;2.15;;;10.60;99.90;;;;;;4960577;28;20034;-65
2021/01/25 03:59:05;;;;;;;3.40;1.40;;;10.70;99.90;;;;;;4959352;28;20046;-66
2021/01/25 04:01:33;;;;;;;14.55;1.58;;;10.50;99.90;;;;;;4961523;28;20023;-66
2021/01/25 04:03:59;;;;;;;8.40;2.25;;;10.40;99.90;;;;;;4959980;28;20473;-66
2021/01/25 04:06:26;;;;;;;7.00;1.50;;;10.40;99.90;;;;;;4956015;28;20041;-66
2021/01/25 04:08:53;;;;;;;9.55;2.10;;;10.40;99.90;;;;;;4957906;28;20038;-66
2021/01/25 04:11:20;;;;;;;7.32;1.50;;;10.20;99.90;;;;;;4959066;28;20534;-67
2021/01/25 04:13:47;;;;;;;10.13;1.63;;;10.30;99.90;;;;;;4958814;28;20129;-67
2021/01/25 04:16:14;;;;;;;10.07;1.58;;;10.20;99.90;;;;;;4959239;28;20041;-67
2021/01/25 04:18:40;;;;;;;9.07;2.00;;;10.20;99.90;;;;;;4959484;28;20041;-67
2021/01/25 04:21:07;;;;;;;10.15;1.98;;;10.30;99.90;;;;;;4957601;28;20022;-67
2021/01/25 04:23:34;;;;;;;10.00;1.85;;;10.30;99.90;;;;;;4959191;28;20031;-67
2021/01/25 04:26:00;;;;;;;11.93;1.90;;;10.30;99.90;;;;;;4959221;28;20457;-67
2021/01/25 04:28:27;;;;;;;8.60;1.65;;;10.40;99.90;;;;;;4957859;28;20031;-67
2021/01/25 04:30:54;;;;;;;11.45;2.22;;;10.40;99.90;;;;;;4958042;28;20038;-66
2021/01/25 04:33:20;;;;;;;12.18;2.03;;;10.50;99.90;;;;;;4957958;28;20388;-66
2021/01/25 04:35:47;;;;;;;9.07;1.83;;;10.50;99.90;;;;;;4959751;28;20027;-68
2021/01/25 04:38:14;;;;;;;8.27;1.75;;;10.50;99.90;;;;;;4958817;28;20275;-67
2021/01/25 04:40:40;;;;;;;12.52;2.40;;;10.50;99.90;;;;;;4959562;28;20115;-67
2021/01/25 04:43:07;;;;;;;7.38;2.05;;;10.50;99.90;;;;;;4958608;28;20346;-68
2021/01/25 04:45:34;;;;;;;12.02;1.67;;;10.40;99.90;;;;;;4958357;28;20393;-68
2021/01/25 04:48:01;;;;;;;9.65;2.17;;;10.60;99.90;;;;;;4965295;28;20031;-66
2021/01/25 04:50:28;;;;;;;8.50;1.88;;;10.60;99.90;;;;;;4964012;28;20050;-66
2021/01/25 04:52:56;;;;;;;13.43;2.38;;;10.50;99.90;;;;;;4961183;28;20606;-67
2021/01/25 04:55:23;;;;;;;7.72;1.42;;;10.50;99.90;;;;;;4964439;28;20058;-68
2021/01/25 04:57:52;;;;;;;6.72;1.73;;;10.60;99.90;;;;;;4962804;28;20110;-68
2021/01/25 05:00:20;;;;;;;6.25;1.77;;;10.60;99.90;;;;;;4964444;28;20038;-67
2021/01/25 05:02:46;;;;;;;13.30;3.28;;;10.70;99.90;;;;;;4960982;28;20101;-66
2021/01/25 05:05:13;;;;;;;12.27;3.72;;;10.70;99.90;;;;;;4962162;28;20023;-64
2021/01/25 05:07:41;;;;;;;22.65;3.42;;;10.60;99.90;;;;;;4955396;28;20053;-66
2021/01/25 05:10:09;;;;;;;16.90;4.82;;;10.70;99.90;;;;;;4955407;28;20045;-65
2021/01/25 05:12:42;;;;;;;16.30;4.32;;;10.70;99.90;;;;;;4950431;28;20640;-65
2021/01/25 05:15:10;;;;;;;31.90;6.05;;;10.80;99.90;;;;;;4959253;28;20035;-65
2021/01/25 05:17:37;;;;;;;33.92;3.72;;;10.70;99.90;;;;;;4962716;28;20054;-65
2021/01/25 05:20:08;;;;;;;36.03;4.85;;;10.90;99.90;;;;;;4962197;28;20117;-66
2021/01/25 05:22:39;;;;;;;16.35;3.45;;;11.00;99.90;;;;;;4961243;28;20142;-66
2021/01/25 05:25:10;;;;;;;33.75;4.63;;;11.10;99.90;;;;;;4958376;28;20386;-68
2021/01/25 05:27:44;;;;;;;25.50;3.90;;;11.10;99.90;;;;;;4960997;28;20409;-66
2021/01/25 05:30:12;;;;;;;20.15;4.20;;;11.10;99.90;;;;;;4962289;28;20062;-67
2021/01/25 05:32:49;;;;;;;21.40;3.80;;;11.10;99.90;;;;;;4961529;28;20101;-66
2021/01/25 05:35:17;;;;;;;28.63;4.47;;;11.10;99.90;;;;;;4961006;28;20414;-71
2021/01/25 05:37:50;;;;;;;14.05;3.30;;;11.10;99.90;;;;;;4963843;28;20027;-66
2021/01/25 05:40:17;;;;;;;21.27;3.58;;;11.10;99.90;;;;;;4961187;28;20602;-66
2021/01/25 05:42:44;;;;;;;23.23;4.05;;;11.10;99.90;;;;;;4960427;28;20049;-66
2021/01/25 05:45:12;;;;;;;25.00;5.35;;;11.10;99.90;;;;;;4961334;28;20039;-67
2021/01/25 05:47:58;;;;;;;23.47;5.90;;;11.10;99.90;;;;;;4963145;28;20054;-66
2021/01/25 05:50:42;;;;;;;19.30;3.50;;;11.10;99.90;;;;;;4962529;28;20026;-67
2021/01/25 05:53:11;;;;;;;27.60;5.07;;;11.20;99.90;;;;;;4962827;28;20426;-65
2021/01/25 05:55:39;;;;;;;23.52;4.93;;;11.20;99.90;;;;;;4962767;28;20475;-67
2021/01/25 05:58:06;;;;;;;24.05;4.32;;;11.20;99.90;;;;;;4960901;28;20031;-67
2021/01/25 06:00:34;;;;;;;28.80;4.85;;;11.20;99.90;;;;;;4961328;28;20035;-67
2021/01/25 06:03:01;;;;;;;28.33;4.82;;;11.20;99.90;;;;;;4962453;28;20045;-66
2021/01/25 06:05:40;;;;;;;23.42;3.55;;;11.30;99.90;;;;;;4962508;28;20405;-69
2021/01/25 06:08:42;;;;;;;20.80;3.50;;;11.20;99.90;;;;;;4962990;28;20173;-66
2021/01/25 06:11:21;;;;;;;20.70;4.35;;;11.20;99.90;;;;;;4961642;28;20379;-67
2021/01/25 06:14:00;;;;;;;;;;;11.20;99.90;;;;;;4959312;28;20039;-67
2021/01/25 06:16:29;;;;;;;22.95;3.78;;;11.20;99.90;;;;;;4958517;28;20245;-66
2021/01/25 06:19:02;;;;;;;20.55;5.10;;;11.10;99.90;;;;;;4960859;28;20039;-66
2021/01/25 06:21:37;;;;;;;12.73;2.13;;;11.10;99.90;;;;;;4959937;28;20038;-66
2021/01/25 06:24:06;;;;;;;22.05;3.53;;;11.10;99.90;;;;;;4960410;28;20034;-66
2021/01/25 06:26:34;;;;;;;17.65;3.15;;;11.10;99.90;;;;;;4959740;28;20031;-65
2021/01/25 06:29:08;;;;;;;19.38;3.50;;;11.10;99.90;;;;;;4961221;28;20119;-65
2021/01/25 06:31:40;;;;;;;13.38;3.50;;;11.20;99.90;;;;;;4958497;28;20039;-66
2021/01/25 06:34:13;;;;;;;23.20;3.65;;;11.20;99.90;;;;;;4961847;28;20062;-66
2021/01/25 06:36:42;;;;;;;15.35;2.97;;;11.20;99.90;;;;;;4959187;28;20406;-70
2021/01/25 06:39:09;;;;;;;19.70;5.00;;;11.20;99.90;;;;;;4961952;28;20087;-67
2021/01/25 06:41:39;;;;;;;19.48;4.13;;;11.30;99.90;;;;;;4962170;28;20146;-66
2021/01/25 06:44:08;;;;;;;19.88;4.00;;;11.30;99.90;;;;;;4957059;28;20043;-66
2021/01/25 06:46:39;;;;;;;22.67;3.22;;;11.20;99.90;;;;;;4959314;28;20082;-67
2021/01/25 06:49:08;;;;;;;23.23;3.28;;;11.30;99.90;;;;;;4959704;28;20125;-66
2021/01/25 06:51:44;;;;;;;34.35;6.05;;;11.20;99.90;;;;;;4961545;28;20065;-67
2021/01/25 06:54:13;;;;;;;18.90;3.70;;;11.30;99.90;;;;;;4962073;28;20031;-67
2021/01/25 06:56:44;;;;;;;15.00;3.13;;;11.30;99.90;;;;;;4960864;28;20093;-66
2021/01/25 06:59:12;;;;;;;23.75;3.53;;;11.30;99.90;;;;;;4961147;28;20022;-66
2021/01/25 07:01:41;;;;;;;27.23;4.20;;;11.30;99.90;;;;;;4962576;28;20431;-67
2021/01/25 07:04:14;;;;;;;22.75;3.63;;;11.30;99.90;;;;;;4957801;28;20058;-65
2021/01/25 07:06:47;;;;;;;24.27;3.67;;;11.30;99.90;;;;;;4960772;28;20027;-67
2021/01/25 07:09:21;;;;;;;17.17;4.50;;;11.30;99.90;;;;;;4959947;28;20035;-68
2021/01/25 07:11:49;;;;;;;14.52;2.90;;;11.30;99.90;;;;;;4961583;28;20035;-67
2021/01/25 07:14:17;;;;;;;18.00;2.47;;;11.30;99.90;;;;;;4959759;28;20042;-65
2021/01/25 07:16:44;;;;;;;20.77;3.22;;;11.30;99.90;;;;;;4961498;28;20088;-66
2021/01/25 07:19:12;;;;;;;22.55;3.55;;;11.30;99.90;;;;;;4960667;28;20031;-67
2021/01/25 07:21:39;;;;;;;29.70;5.03;;;11.30;99.90;;;;;;4960660;28;21220;-72
2021/01/25 07:24:06;;;;;;;15.30;3.05;;;11.30;99.90;;;;;;4959724;28;20892;-66
2021/01/25 07:26:37;;;;;;;27.60;3.50;;;11.30;99.90;;;;;;4961450;28;20158;-68
2021/01/25 07:29:11;;;;;;;18.38;3.78;;;11.30;99.90;;;;;;4961424;28;20031;-73
2021/01/25 07:31:39;;;;;;;18.23;3.40;;;11.20;99.90;;;;;;4961527;28;20038;-68
2021/01/25 07:34:09;;;;;;;18.50;2.97;;;11.10;99.90;;;;;;4959867;28;20027;-68
2021/01/25 07:36:36;;;;;;;26.10;4.13;;;11.10;99.90;;;;;;4961096;28;20432;-67
2021/01/25 07:39:16;;;;;;;14.50;2.28;;;11.10;99.90;;;;;;4960741;28;20295;-67
2021/01/25 07:41:44;;;;;;;16.02;2.67;;;11.10;99.90;;;;;;4959688;28;20081;-67
2021/01/25 07:44:13;;;;;;;28.73;3.93;;;11.10;99.90;;;;;;4960352;28;20681;-70
2021/01/25 07:46:43;;;;;;;18.65;3.15;;;11.10;99.90;;;;;;4961073;28;20050;-67
2021/01/25 07:49:09;;;;;;;16.67;3.13;;;11.20;99.90;;;;;;4960004;28;20043;-66
2021/01/25 07:51:40;;;;;;;16.20;3.40;;;11.10;99.90;;;;;;4961419;28;20039;-70
2021/01/25 07:54:14;;;;;;;16.80;2.53;;;11.20;99.90;;;;;;4959878;28;20027;-71
2021/01/25 07:56:41;;;;;;;16.80;2.33;;;11.20;99.90;;;;;;4961685;28;20062;-67
2021/01/25 07:59:17;;;;;;;17.58;3.70;;;11.30;99.90;;;;;;4960686;28;20026;-69
2021/01/25 08:01:55;;;;;;;11.40;1.92;;;11.30;99.90;;;;;;4959957;28;20560;-67
2021/01/25 08:04:28;;;;;;;30.52;3.97;;;11.30;99.90;;;;;;4962182;28;20031;-70
2021/01/25 08:06:59;;;;;;;19.92;3.22;;;11.20;99.90;;;;;;4960705;28;20507;-69
2021/01/25 08:09:27;;;;;;;13.07;2.70;;;10.90;99.90;;;;;;4960081;28;20041;-67
2021/01/25 08:11:55;;;;;;;11.10;2.60;;;10.90;99.90;;;;;;4961411;28;20058;-68
2021/01/25 08:14:32;;;;;;;23.40;2.63;;;10.90;99.90;;;;;;4959557;28;20125;-65
2021/01/25 08:17:24;;;;;;;13.20;2.38;;;10.80;99.90;;;;;;4961012;28;20086;-67
2021/01/25 08:20:01;;;;;;;11.27;2.35;;;10.90;99.90;;;;;;4960292;28;20605;-68
2021/01/25 08:22:40;;;;;;;14.25;1.55;;;10.90;99.90;;;;;;4961622;28;20173;-65
2021/01/25 08:25:07;;;;;;;14.52;2.95;;;11.00;99.90;;;;;;4962669;28;20172;-65
2021/01/25 08:27:36;;;;;;;11.95;1.85;;;11.00;99.90;;;;;;4963080;28;20385;-68
2021/01/25 08:30:18;;;;;;;14.57;2.30;;;11.10;99.90;;;;;;4962888;28;20038;-67
2021/01/25 08:32:47;;;;;;;22.90;2.70;;;11.30;99.90;;;;;;4961653;28;20638;-66
2021/01/25 08:35:26;;;;;;;16.45;2.40;;;11.10;99.90;;;;;;4962789;28;20095;-66
2021/01/25 08:37:53;;;;;;;16.35;3.63;;;11.20;99.90;;;;;;4965179;28;20030;-66
2021/01/25 08:40:22;;;;;;;13.75;2.03;;;11.20;99.90;;;;;;4964434;28;20049;-67
2021/01/25 08:42:49;;;;;;;11.93;2.63;;;11.20;99.90;;;;;;4964278;28;20035;-66
2021/01/25 08:45:28;;;;;;;7.85;1.30;;;11.10;99.90;;;;;;4963944;28;20142;-65
2021/01/25 08:48:06;;;;;;;8.88;1.40;;;11.20;99.90;;;;;;4963194;28;20026;-67
2021/01/25 08:50:33;;;;;;;14.88;1.77;;;11.20;99.90;;;;;;4963305;28;21581;-66
2021/01/25 08:53:15;;;;;;;15.27;1.65;;;11.20;99.90;;;;;;4964792;28;20657;-65
2021/01/25 08:55:44;;;;;;;12.18;1.60;;;11.20;99.90;;;;;;4963522;28;20113;-67
2021/01/25 08:58:16;;;;;;;;;;;11.20;99.90;;;;;;4963347;28;20031;-71
2021/01/25 09:00:43;;;;;;;11.00;1.48;;;11.20;99.90;;;;;;4963224;28;19968;-65
2021/01/25 09:03:13;;;;;;;15.70;2.63;;;11.20;99.90;;;;;;4964553;28;21738;-69
2021/01/25 09:05:40;;;;;;;9.75;2.30;;;11.30;99.90;;;;;;4963342;28;20042;-70
2021/01/25 09:08:07;;;;;;;11.40;1.45;;;11.30;99.90;;;;;;4965188;28;20349;-69
2021/01/25 09:10:34;;;;;;;10.73;2.05;;;11.30;99.90;;;;;;4964030;28;20137;-66
2021/01/25 09:13:00;;;;;;;14.15;2.20;;;11.30;99.90;;;;;;4961653;28;20038;-66
2021/01/25 09:15:27;;;;;;;12.30;1.70;;;11.30;99.90;;;;;;4963788;28;20424;-66
2021/01/25 09:17:57;;;;;;;5.38;1.17;;;11.30;99.90;;;;;;4963726;28;20058;-67
2021/01/25 09:20:24;;;;;;;12.45;1.65;;;11.30;99.90;;;;;;4964079;28;20061;-67
2021/01/25 09:22:51;;;;;;;7.43;1.33;;;11.30;99.90;;;;;;4963240;28;20031;-67
2021/01/25 09:25:20;;;;;;;9.13;1.40;;;11.30;99.90;;;;;;4964770;28;20055;-66
2021/01/25 09:27:46;;;;;;;9.52;1.40;;;11.40;99.90;;;;;;4963452;28;20429;-66
2021/01/25 09:30:15;;;;;;;13.68;1.40;;;11.20;99.90;;;;;;4962361;28;20042;-66
2021/01/25 09:32:42;;;;;;;12.63;1.40;;;11.40;99.90;;;;;;4960811;28;20026;-65
2021/01/25 09:35:12;;;;;;;8.40;1.10;;;11.40;99.90;;;;;;4962228;28;20038;-66
2021/01/25 09:37:39;;;;;;;9.88;1.30;;;11.40;99.90;;;;;;4963995;28;20030;-65
2021/01/25 09:40:07;;;;;;;14.40;1.60;;;11.40;99.90;;;;;;4964389;28;20037;-65
2021/01/25 09:42:34;;;;;;;8.02;1.35;;;11.30;99.90;;;;;;4964004;28;20058;-65
2021/01/25 09:45:00;;;;;;;11.00;1.58;;;11.40;99.90;;;;;;4962129;28;20043;-66
2021/01/25 09:47:27;;;;;;;3.42;0.75;;;11.30;99.90;;;;;;4963895;28;20386;-65
2021/01/25 09:49:54;;;;;;;7.10;1.10;;;11.30;99.90;;;;;;4962912;28;20453;-66
2021/01/25 09:52:20;;;;;;;6.22;0.98;;;11.30;99.90;;;;;;4963284;28;20107;-68
2021/01/25 09:54:47;;;;;;;5.57;1.00;;;11.30;99.90;;;;;;4962487;28;20054;-66
2021/01/25 09:57:13;;;;;;;8.43;0.82;;;11.30;99.90;;;;;;4962139;28;20051;-66
2021/01/25 09:59:40;;;;;;;7.65;1.00;;;11.30;99.90;;;;;;4962653;28;20027;-68
2021/01/25 10:02:07;;;;;;;5.60;0.73;;;11.40;99.90;;;;;;4962862;28;20138;-67
2021/01/25 10:04:33;;;;;;;8.95;1.65;;;11.40;99.90;;;;;;4963771;28;20035;-66
2021/01/25 10:07:00;;;;;;;9.43;1.30;;;11.40;99.90;;;;;;4962877;28;20042;-65
2021/01/25 10:09:27;;;;;;;11.43;1.98;;;11.50;99.90;;;;;;4963285;28;20061;-66
2021/01/25 10:11:55;;;;;;;10.40;1.40;;;11.50;99.90;;;;;;4963474;28;20031;-65
2021/01/25 10:14:21;;;;;;;13.20;2.03;;;11.50;99.90;;;;;;4961940;28;20118;-68
2021/01/25 10:16:48;;;;;;;16.05;1.17;;;11.50;99.90;;;;;;4963717;28;20138;-66
2021/01/25 10:19:15;;;;;;;8.82;1.70;;;11.50;99.90;;;;;;4961696;28;20031;-65
2021/01/25 10:21:41;;;;;;;4.53;1.08;;;11.50;99.90;;;;;;4967715;28;20114;-65
2021/01/25 10:24:08;;;;;;;10.63;1.20;;;11.50;99.90;;;;;;4961844;28;20029;-66
2021/01/25 10:26:35;;;;;;;7.68;1.05;;;11.50;99.90;;;;;;4960860;28;20045;-65
2021/01/25 10:29:01;;;;;;;6.20;0.88;;;11.50;99.90;;;;;;4962165;28;20133;-67
2021/01/25 10:31:28;;;;;;;9.55;1.35;;;11.40;99.90;;;;;;4961880;28;20031;-65
2021/01/25 10:33:54;;;;;;;9.93;1.08;;;11.40;99.90;;;;;;4961461;28;20038;-64
2021/01/25 10:36:21;;;;;;;8.25;1.13;;;11.40;99.90;;;;;;4962638;28;20027;-66
2021/01/25 10:38:48;;;;;;;9.77;1.23;;;11.30;99.90;;;;;;4962703;28;20023;-64
2021/01/25 10:41:16;;;;;;;10.73;1.50;;;11.30;99.90;;;;;;4961506;28;20026;-66
2021/01/25 10:43:43;;;;;;;11.98;1.65;;;11.20;99.90;;;;;;4961827;28;20088;-70
2021/01/25 10:46:10;;;;;;;11.60;1.15;;;11.20;99.90;;;;;;4961794;28;20401;-67
2021/01/25 10:48:37;;;;;;;5.00;0.65;;;11.10;99.90;;;;;;4962706;28;20399;-67
2021/01/25 10:51:03;;;;;;;7.28;0.95;;;11.10;99.90;;;;;;4960859;28;20049;-66
2021/01/25 10:53:30;;;;;;;10.93;0.93;;;11.10;99.90;;;;;;4962442;28;20530;-68
2021/01/25 10:55:57;;;;;;;8.30;0.70;;;11.00;99.90;;;;;;4961857;28;20032;-67
2021/01/25 10:58:23;;;;;;;8.73;0.88;;;11.00;99.90;;;;;;4959773;28;20050;-68
2021/01/25 11:00:51;;;;;;;4.80;0.82;;;11.00;99.90;;;;;;4962910;28;20034;-65
2021/01/25 11:03:19;;;;;;;7.18;1.27;;;10.90;99.90;;;;;;4962798;28;20086;-65
2021/01/25 11:05:45;;;;;;;3.25;0.50;;;10.90;99.90;;;;;;4961565;28;20039;-66
2021/01/25 11:08:12;;;;;;;3.25;0.60;;;10.90;99.90;;;;;;4963094;28;20029;-68
2021/01/25 11:10:39;;;;;;;7.90;0.80;;;10.90;99.90;;;;;;4962168;28;20035;-65
2021/01/25 11:13:05;;;;;;;3.78;0.70;;;10.80;99.90;;;;;;4961431;28;20148;-65
2021/01/25 11:15:32;;;;;;;6.80;0.88;;;10.80;99.90;;;;;;4961261;28;20039;-67
2021/01/25 11:17:59;;;;;;;9.52;1.65;;;10.80;99.90;;;;;;4962626;28;20068;-68
2021/01/25 11:20:26;;;;;;;19.83;1.77;;;10.70;99.90;;;;;;4961191;28;20027;-66
2021/01/25 11:22:53;;;;;;;8.80;2.00;;;10.60;99.90;;;;;;4961415;28;20027;-67
2021/01/25 11:25:19;;;;;;;8.98;1.70;;;10.60;99.90;;;;;;4963035;28;20030;-63
2021/01/25 11:27:46;;;;;;;11.07;2.28;;;10.50;99.90;;;;;;4960341;28;20046;-62
2021/01/25 11:30:13;;;;;;;12.98;1.98;;;10.50;99.90;;;;;;4960812;28;20030;-63
2021/01/25 11:32:40;;;;;;;8.13;1.55;;;10.50;99.90;;;;;;4961029;28;20364;-64
2021/01/25 11:35:08;;;;;;;22.35;2.33;;;10.60;99.90;;;;;;4961331;28;20030;-64
2021/01/25 11:37:34;;;;;;;23.25;2.35;;;10.60;99.90;;;;;;4960745;28;20135;-66
2021/01/25 11:40:01;;;;;;;13.57;1.73;;;10.60;99.90;;;;;;4960647;28;20081;-69
2021/01/25 11:42:28;;;;;;;22.75;3.22;;;10.50;99.90;;;;;;4959426;28;20325;-69
2021/01/25 11:44:54;;;;;;;27.15;3.17;;;10.50;99.90;;;;;;4958647;28;20134;-67
2021/01/25 11:47:21;;;;;;;30.10;3.35;;;10.40;99.90;;;;;;4961914;28;20124;-68
2021/01/25 11:49:47;;;;;;;14.82;2.50;;;10.40;99.90;;;;;;4959687;28;21498;-67
2021/01/25 11:52:14;;;;;;;17.02;2.92;;;10.50;99.90;;;;;;4961202;28;20027;-73
2021/01/25 11:54:41;;;;;;;9.77;1.98;;;10.50;99.90;;;;;;4960073;28;20113;-67
2021/01/25 11:57:08;;;;;;;17.15;1.95;;;10.50;99.90;;;;;;4961105;28;20023;-66
2021/01/25 11:59:34;;;;;;;11.25;1.20;;;10.50;99.90;;;;;;4960191;28;20106;-70
2021/01/25 12:02:01;;;;;;;14.52;1.98;;;10.50;99.90;;;;;;4960238;28;20097;-70
2021/01/25 12:04:27;;;;;;;16.60;2.45;;;10.60;99.90;;;;;;4960792;28;20050;-71
2021/01/25 12:06:54;;;;;;;16.65;2.47;;;10.60;99.90;;;;;;4961728;28;20062;-71
2021/01/25 12:09:23;;;;;;;18.70;2.70;;;10.50;99.90;;;;;;4959190;28;20027;-71
2021/01/25 12:11:50;;;;;;;15.63;2.83;;;10.60;99.90;;;;;;4960485;28;20122;-73
2021/01/25 12:14:17;;;;;;;12.52;3.38;;;10.60;99.90;;;;;;4973846;28;20297;-69
2021/01/25 12:16:44;;;;;;;19.67;3.35;;;10.60;99.90;;;;;;4961401;28;20046;-65
2021/01/25 12:19:11;;;;;;;21.48;3.83;;;10.60;99.90;;;;;;4960676;28;20462;-75
2021/01/25 12:21:37;;;;;;;23.98;5.28;;;10.60;99.90;;;;;;4976233;28;20369;-72
2021/01/25 12:24:04;;;;;;;28.83;5.97;;;10.60;99.90;;;;;;4961121;28;20117;-67
2021/01/25 12:26:31;;;;;;;24.48;5.25;;;10.60;99.90;;;;;;4960027;28;20022;-68
2021/01/25 12:28:58;;;;;;;18.02;3.92;;;10.60;99.90;;;;;;4961107;28;20061;-69
2021/01/25 12:31:27;;;;;;;22.27;4.03;;;10.70;99.90;;;;;;4960393;28;20039;-72
2021/01/25 12:33:54;;;;;;;25.33;4.07;;;10.80;99.90;;;;;;4961315;28;20062;-70
2021/01/25 12:36:21;;;;;;;33.67;5.57;;;10.70;99.90;;;;;;4959897;28;20058;-67
2021/01/25 12:38:48;;;;;;;32.75;6.03;;;10.70;99.90;;;;;;4961470;28;20031;-68
2021/01/25 12:41:15;;;;;;;18.92;4.03;;;10.50;99.90;;;;;;4959691;28;20023;-70
2021/01/25 12:43:42;;;;;;;27.13;4.55;;;10.30;99.90;;;;;;4961396;28;20041;-69
2021/01/25 12:46:08;;;;;;;35.85;6.15;;;10.20;99.90;;;;;;4959500;28;20027;-72
2021/01/25 12:48:35;;;;;;;32.28;5.43;;;10.10;99.90;;;;;;4961216;28;20035;-64